Terminal Aerodrome Forecast
Issued by NWS

Home | Current Version | Previous Version | Text Only | Print | Product List | Glossary On
Versions: 1 2 3 4 5 6 7 8 9 10 11 12 13
000
FTUS46 KSTO 221700 RRA
TAFSCK
TAF
KSCK 221744Z 2218/2318 32010KT P6SM OVC007
     FM222000 32011KT P6SM BKN015
     FM230000 32010KT P6SM SKC
     FM230800 30006KT 2SM BR FEW250
     FM231200 VRB03KT 1/4SM FG OVC001=

USA.gov is the U.S. government's official web portal to all federal, state and local government web resources and services.